Terminal Aerodrome Forecast
Issued by NWS

Home | Current Version | Previous Version | Text Only | Print | Product List | Glossary On
Versions: 1 2 3 4 5 6 7 8 9 10 11 12 13
000
FTUS45 KABQ 012300
TAFLVS
TAF
KLVS 012320Z 0200/0224 22012G20KT P6SM FEW080
     FM020200 28008KT P6SM SKC
     FM020500 03007KT P6SM SKC
     FM021500 15008KT P6SM SKC
     FM021900 21013KT P6SM FEW080=

USA.gov is the U.S. government's official web portal to all federal, state and local government web resources and services.